createdAt,value
2022-10-08T00:00:54.308Z,17.40
2022-10-08T00:03:23.152Z,17.40
2022-10-08T00:05:56.600Z,17.40
2022-10-08T00:08:23.803Z,17.40
2022-10-08T00:10:55.284Z,17.40
2022-10-08T00:13:22.538Z,17.40
2022-10-08T00:15:49.823Z,17.40
2022-10-08T00:18:16.759Z,17.40
2022-10-08T00:20:43.975Z,17.50
2022-10-08T00:23:10.926Z,17.50
2022-10-08T00:25:42.491Z,17.50
2022-10-08T00:28:10.244Z,17.50
2022-10-08T00:30:37.550Z,17.50
2022-10-08T00:33:04.541Z,17.50
2022-10-08T00:35:35.847Z,17.50
2022-10-08T00:38:03.097Z,17.50
2022-10-08T00:40:29.941Z,17.50
2022-10-08T00:42:56.847Z,17.50
2022-10-08T00:45:23.870Z,17.50
2022-10-08T00:47:54.110Z,17.50
2022-10-08T00:50:34.305Z,17.50
2022-10-08T00:53:03.790Z,17.50
2022-10-08T00:55:31.524Z,17.50
2022-10-08T00:58:02.329Z,17.50
2022-10-08T01:00:29.807Z,17.50
2022-10-08T01:02:56.798Z,17.40
2022-10-08T01:05:39.413Z,17.40
2022-10-08T01:08:20.817Z,17.40
2022-10-08T01:10:50.717Z,17.50
2022-10-08T01:13:32.899Z,17.50
2022-10-08T01:16:18.712Z,17.60
2022-10-08T01:18:48.690Z,17.60
2022-10-08T01:21:19.933Z,17.70
2022-10-08T01:24:05.068Z,17.70
2022-10-08T01:26:37.940Z,17.60
2022-10-08T01:29:28.313Z,17.60
2022-10-08T01:32:04.167Z,17.60
2022-10-08T01:34:34.567Z,17.60
2022-10-08T01:37:03.263Z,17.60
2022-10-08T01:39:32.408Z,17.60
2022-10-08T01:42:00.647Z,17.60
2022-10-08T01:44:33.695Z,17.60
2022-10-08T01:47:03.981Z,17.60
2022-10-08T01:49:33.552Z,17.60
2022-10-08T01:52:04.328Z,17.60
2022-10-08T01:54:32.573Z,17.60
2022-10-08T01:57:01.201Z,17.60
2022-10-08T01:59:32.513Z,17.60
2022-10-08T02:01:59.396Z,17.60
2022-10-08T02:04:33.791Z,17.70
2022-10-08T02:07:02.181Z,17.60
2022-10-08T02:09:30.532Z,17.60
2022-10-08T02:11:57.688Z,17.60
2022-10-08T02:14:26.588Z,17.60
2022-10-08T02:16:58.515Z,17.60
2022-10-08T02:19:45.619Z,17.60
2022-10-08T02:22:16.006Z,17.60
2022-10-08T02:24:44.428Z,17.50
2022-10-08T02:27:12.904Z,17.50
2022-10-08T02:29:42.444Z,17.50
2022-10-08T02:32:12.724Z,17.50
2022-10-08T02:34:58.639Z,17.40
2022-10-08T02:37:31.824Z,17.40
2022-10-08T02:40:01.115Z,17.40
2022-10-08T02:42:29.013Z,17.40
2022-10-08T02:45:01.934Z,17.30
2022-10-08T02:47:30.789Z,17.30
2022-10-08T02:50:00.166Z,17.20
2022-10-08T02:52:28.219Z,17.20
2022-10-08T02:54:55.973Z,17.20
2022-10-08T02:57:31.914Z,17.20
2022-10-08T02:59:59.347Z,17.20
2022-10-08T03:02:29.909Z,17.10
2022-10-08T03:04:59.374Z,17.10
2022-10-08T03:07:28.767Z,17.10
2022-10-08T03:09:56.761Z,17.10
2022-10-08T03:12:25.138Z,17.10
2022-10-08T03:14:52.736Z,17.10
2022-10-08T03:17:23.770Z,17.10
2022-10-08T03:19:50.956Z,17.10
2022-10-08T03:22:17.883Z,17.10
2022-10-08T03:24:44.695Z,17.20
2022-10-08T03:27:11.553Z,17.20
2022-10-08T03:29:38.395Z,17.20
2022-10-08T03:32:06.654Z,17.20
2022-10-08T03:34:33.541Z,17.20
2022-10-08T03:37:00.392Z,17.30
2022-10-08T03:39:27.264Z,17.40
2022-10-08T03:41:54.186Z,17.30
2022-10-08T03:44:21.068Z,17.40
2022-10-08T03:46:48.053Z,17.40
2022-10-08T03:49:14.954Z,17.40
2022-10-08T03:51:41.824Z,17.40
2022-10-08T03:54:08.796Z,17.40
2022-10-08T03:56:35.659Z,17.50
2022-10-08T03:59:03.831Z,17.50
2022-10-08T04:01:30.834Z,17.60
2022-10-08T04:03:57.781Z,17.60
2022-10-08T04:06:24.795Z,17.60
2022-10-08T04:08:51.784Z,17.60
2022-10-08T04:11:18.771Z,17.60
2022-10-08T04:13:45.887Z,17.60
2022-10-08T04:16:16.866Z,17.60
2022-10-08T04:18:43.760Z,17.60
2022-10-08T04:21:11.876Z,17.60
2022-10-08T04:23:39.847Z,17.70
2022-10-08T04:26:06.876Z,17.70
2022-10-08T04:28:38.599Z,17.70
2022-10-08T04:31:06.009Z,17.70
2022-10-08T04:33:33.771Z,17.70
2022-10-08T04:36:00.862Z,17.70
2022-10-08T04:38:28.249Z,17.70
2022-10-08T04:41:05.467Z,17.70
2022-10-08T04:43:32.860Z,17.70
2022-10-08T04:45:59.761Z,17.70
2022-10-08T04:48:26.602Z,17.70
2022-10-08T04:51:00.865Z,17.70
2022-10-08T04:53:28.385Z,17.60
2022-10-08T04:55:55.805Z,17.60
2022-10-08T04:58:23.313Z,17.60
2022-10-08T05:00:50.161Z,17.60
2022-10-08T05:03:17.626Z,17.60
2022-10-08T05:05:45.460Z,17.50
2022-10-08T05:08:12.353Z,17.50
2022-10-08T05:10:39.258Z,17.50
2022-10-08T05:13:06.191Z,17.50
2022-10-08T05:15:34.860Z,17.50
2022-10-08T05:18:01.907Z,17.50
2022-10-08T05:20:28.831Z,17.50
2022-10-08T05:22:55.622Z,17.50
2022-10-08T05:25:22.919Z,17.50
2022-10-08T05:27:50.001Z,17.40
2022-10-08T05:30:21.725Z,17.40
2022-10-08T05:32:49.232Z,17.40
2022-10-08T05:35:16.540Z,17.40
2022-10-08T05:37:43.438Z,17.40
2022-10-08T05:40:10.694Z,17.40
2022-10-08T05:42:37.839Z,17.40
2022-10-08T05:45:04.969Z,17.40
2022-10-08T05:47:31.796Z,17.40
2022-10-08T05:49:58.703Z,17.40
2022-10-08T05:52:27.178Z,17.40
2022-10-08T05:54:54.307Z,17.40
2022-10-08T05:57:21.250Z,17.40
2022-10-08T05:59:48.215Z,17.40
2022-10-08T06:02:15.106Z,17.30
2022-10-08T06:04:42.359Z,17.40
2022-10-08T06:07:09.264Z,17.30
2022-10-08T06:09:36.145Z,17.40
2022-10-08T06:12:03.131Z,17.30
2022-10-08T06:14:30.164Z,17.30
2022-10-08T06:16:57.433Z,17.30
2022-10-08T06:19:24.273Z,17.30
2022-10-08T06:21:51.360Z,17.30
2022-10-08T06:24:18.420Z,17.30
2022-10-08T06:26:45.500Z,17.30
2022-10-08T06:29:16.446Z,17.40
2022-10-08T06:31:43.703Z,17.40
2022-10-08T06:34:10.584Z,17.40
2022-10-08T06:36:38.059Z,17.40
2022-10-08T06:39:10.875Z,17.30
2022-10-08T06:41:38.015Z,17.30
2022-10-08T06:44:05.766Z,17.30
2022-10-08T06:46:33.200Z,17.40
2022-10-08T06:49:01.304Z,17.40
2022-10-08T06:51:28.716Z,17.40
2022-10-08T06:53:59.417Z,17.40
2022-10-08T06:56:29.089Z,17.40
2022-10-08T06:58:55.984Z,17.40
2022-10-08T07:01:27.882Z,17.50
2022-10-08T07:03:59.425Z,17.50
2022-10-08T07:06:26.945Z,17.50
2022-10-08T07:08:58.458Z,17.60
2022-10-08T07:11:25.941Z,17.70
2022-10-08T07:13:54.433Z,17.70
2022-10-08T07:16:23.277Z,17.80
2022-10-08T07:18:51.163Z,17.90
2022-10-08T07:21:19.097Z,18.00
2022-10-08T07:23:46.209Z,18.00
2022-10-08T07:26:14.306Z,18.10
2022-10-08T07:28:48.235Z,18.00
2022-10-08T07:31:16.311Z,18.10
2022-10-08T07:33:43.272Z,18.10
2022-10-08T07:36:12.066Z,18.10
2022-10-08T07:38:39.388Z,18.10
2022-10-08T07:41:06.608Z,18.10
2022-10-08T07:43:33.502Z,18.10
2022-10-08T07:46:00.443Z,18.20
2022-10-08T07:48:33.813Z,18.20
2022-10-08T07:51:08.100Z,18.30
2022-10-08T07:53:35.524Z,18.40
2022-10-08T07:56:02.807Z,18.50
2022-10-08T07:58:29.701Z,18.50
2022-10-08T08:00:57.760Z,18.50
2022-10-08T08:03:24.948Z,18.60
2022-10-08T08:05:54.089Z,18.70
2022-10-08T08:08:24.887Z,18.70
2022-10-08T08:10:58.427Z,18.70
2022-10-08T08:13:25.423Z,18.90
2022-10-08T08:15:59.534Z,19.00
2022-10-08T08:18:30.752Z,19.20
2022-10-08T08:21:01.789Z,19.30
2022-10-08T08:23:29.954Z,19.40
2022-10-08T08:25:59.890Z,19.50
2022-10-08T08:28:26.851Z,19.60
2022-10-08T08:30:56.010Z,19.50
2022-10-08T08:33:23.066Z,19.50
2022-10-08T08:35:50.800Z,19.40
2022-10-08T08:38:17.684Z,19.30
2022-10-08T08:40:44.788Z,19.20
2022-10-08T08:43:11.675Z,19.10
2022-10-08T08:45:47.431Z,19.00
2022-10-08T08:48:26.633Z,18.90
2022-10-08T08:50:59.381Z,18.90
2022-10-08T08:53:45.250Z,18.90
2022-10-08T08:56:32.342Z,18.80
2022-10-08T08:59:11.505Z,18.90
2022-10-08T09:02:03.107Z,18.90
2022-10-08T09:04:46.403Z,18.90
2022-10-08T09:07:34.563Z,18.90
2022-10-08T09:10:09.778Z,18.90
2022-10-08T09:12:47.391Z,18.90
2022-10-08T09:15:28.906Z,18.90
2022-10-08T09:17:56.083Z,19.00
2022-10-08T09:20:25.799Z,19.10
2022-10-08T09:22:54.149Z,19.40
2022-10-08T09:25:39.814Z,19.60
2022-10-08T09:28:33.636Z,19.80
2022-10-08T09:31:43.319Z,20.10
2022-10-08T09:34:13.600Z,20.20
2022-10-08T09:36:48.796Z,20.20
2022-10-08T09:39:20.304Z,20.10
2022-10-08T09:42:10.087Z,20.10
2022-10-08T09:44:48.787Z,20.10
2022-10-08T09:47:26.446Z,20.20
2022-10-08T09:50:27.405Z,20.20
2022-10-08T09:52:55.299Z,20.20
2022-10-08T09:55:31.534Z,20.10
2022-10-08T09:58:03.105Z,20.10
2022-10-08T10:00:31.671Z,20.00
2022-10-08T10:02:59.768Z,20.00
2022-10-08T10:05:28.338Z,20.00
2022-10-08T10:07:55.662Z,20.00
2022-10-08T10:10:29.438Z,20.10
2022-10-08T10:12:58.365Z,20.10
2022-10-08T10:15:38.420Z,20.10
2022-10-08T10:18:11.416Z,20.00
2022-10-08T10:20:41.739Z,20.00
2022-10-08T10:23:13.396Z,20.00
2022-10-08T10:25:40.226Z,20.10
2022-10-08T10:28:10.498Z,20.20
2022-10-08T10:30:55.742Z,20.30
2022-10-08T10:33:28.461Z,20.50
2022-10-08T10:36:01.105Z,20.60
2022-10-08T10:38:39.588Z,20.60
2022-10-08T10:41:32.159Z,20.60
2022-10-08T10:44:13.092Z,20.50
2022-10-08T10:46:49.648Z,20.50
2022-10-08T10:49:17.929Z,20.50
2022-10-08T10:52:03.773Z,20.60
2022-10-08T10:54:57.171Z,20.70
2022-10-08T10:57:24.173Z,20.70
2022-10-08T11:00:02.035Z,20.60
2022-10-08T11:02:32.125Z,20.70
2022-10-08T11:05:02.377Z,20.70
2022-10-08T11:07:38.562Z,20.80
2022-10-08T11:10:05.451Z,20.90
2022-10-08T11:12:44.455Z,21.10
2022-10-08T11:15:17.403Z,21.10
2022-10-08T11:17:47.337Z,21.10
2022-10-08T11:20:29.810Z,21.20
2022-10-08T11:22:59.808Z,21.20
2022-10-08T11:25:49.790Z,21.30
2022-10-08T11:28:23.322Z,21.30
2022-10-08T11:31:05.933Z,21.40
2022-10-08T11:33:33.320Z,21.40
2022-10-08T11:36:15.604Z,21.50
2022-10-08T11:38:45.765Z,21.60
2022-10-08T11:41:18.879Z,21.80
2022-10-08T11:43:51.955Z,21.90
2022-10-08T11:46:22.715Z,22.00
2022-10-08T11:48:50.439Z,22.00
2022-10-08T11:51:20.460Z,22.00
2022-10-08T11:54:06.198Z,22.00
2022-10-08T11:56:34.524Z,22.00
2022-10-08T11:59:22.193Z,21.90
2022-10-08T12:01:50.728Z,21.80
2022-10-08T12:04:20.191Z,21.80
2022-10-08T12:06:48.065Z,21.80
2022-10-08T12:09:25.473Z,21.90
2022-10-08T12:11:53.710Z,22.00
2022-10-08T12:14:20.596Z,22.10
2022-10-08T12:16:47.499Z,22.10
2022-10-08T12:19:35.179Z,22.00
2022-10-08T12:22:14.688Z,22.00
2022-10-08T12:24:48.890Z,21.90
2022-10-08T12:27:17.075Z,21.90
2022-10-08T12:29:53.946Z,22.00
2022-10-08T12:32:30.894Z,22.00
2022-10-08T12:34:58.285Z,22.10
2022-10-08T12:37:45.095Z,22.10
2022-10-08T12:40:20.158Z,22.20
2022-10-08T12:42:49.548Z,22.20
2022-10-08T12:45:27.725Z,22.30
2022-10-08T12:48:13.866Z,22.30
2022-10-08T12:51:10.504Z,22.40
2022-10-08T12:53:53.790Z,22.30
2022-10-08T12:59:53.573Z,22.30
2022-10-08T13:02:42.529Z,22.20
2022-10-08T13:05:29.536Z,22.10
2022-10-08T13:08:04.590Z,22.10
2022-10-08T13:10:33.643Z,22.00
2022-10-08T13:13:29.401Z,21.90
2022-10-08T13:16:12.028Z,21.90
2022-10-08T13:22:07.547Z,21.70
2022-10-08T13:24:41.383Z,21.60
2022-10-08T13:27:31.047Z,21.60
2022-10-08T13:30:52.383Z,21.70
2022-10-08T13:36:37.955Z,21.70
2022-10-08T13:39:30.912Z,21.80
2022-10-08T13:42:10.020Z,21.90
2022-10-08T13:47:41.887Z,22.00
2022-10-08T13:50:33.183Z,22.00
2022-10-08T13:56:40.419Z,21.90
2022-10-08T13:59:14.415Z,21.80
2022-10-08T14:01:48.455Z,21.80
2022-10-08T14:04:20.540Z,21.80
2022-10-08T14:06:50.651Z,21.70
2022-10-08T14:09:34.728Z,21.70
2022-10-08T14:12:08.514Z,21.70
2022-10-08T14:14:40.873Z,21.70
2022-10-08T14:17:14.820Z,21.70
2022-10-08T14:19:44.731Z,21.80
2022-10-08T14:22:16.876Z,21.90
2022-10-08T14:24:54.969Z,21.90
2022-10-08T14:27:24.128Z,21.90
2022-10-08T14:29:57.598Z,21.90
2022-10-08T14:32:31.229Z,21.90
2022-10-08T14:34:59.204Z,21.90
2022-10-08T14:37:27.495Z,21.80
2022-10-08T14:39:58.780Z,21.90
2022-10-08T14:42:30.135Z,21.80
2022-10-08T14:45:02.586Z,21.80
2022-10-08T14:47:34.836Z,21.80
2022-10-08T14:50:03.577Z,21.70
2022-10-08T14:52:32.005Z,21.60
2022-10-08T14:55:00.285Z,21.60
2022-10-08T14:57:36.173Z,21.50
2022-10-08T15:00:09.082Z,21.60
2022-10-08T15:02:37.363Z,21.40
2022-10-08T15:05:21.053Z,21.40
2022-10-08T15:07:53.344Z,21.40
2022-10-08T15:10:22.549Z,21.40
2022-10-08T15:12:55.094Z,21.30
2022-10-08T15:15:29.571Z,21.30
2022-10-08T15:17:57.933Z,21.30
2022-10-08T15:20:26.647Z,21.30
2022-10-08T15:22:55.656Z,21.30
2022-10-08T15:25:23.624Z,21.40
2022-10-08T15:27:52.105Z,21.60
2022-10-08T15:30:25.297Z,21.80
2022-10-08T15:32:54.607Z,22.20
2022-10-08T15:35:21.611Z,22.60
2022-10-08T15:37:48.440Z,22.90
2022-10-08T15:40:15.453Z,22.90
2022-10-08T15:42:42.291Z,23.00
2022-10-08T15:45:09.259Z,22.90
2022-10-08T15:47:36.127Z,22.90
2022-10-08T15:50:03.233Z,22.70
2022-10-08T15:52:30.182Z,22.50
2022-10-08T15:54:57.068Z,22.10
2022-10-08T15:57:23.927Z,21.90
2022-10-08T15:59:50.750Z,21.70
2022-10-08T16:02:18.674Z,21.60
2022-10-08T16:04:46.240Z,21.40
2022-10-08T16:07:13.252Z,21.20
2022-10-08T16:09:40.302Z,21.10
2022-10-08T16:12:07.190Z,20.80
2022-10-08T16:14:34.190Z,20.50
2022-10-08T16:17:01.147Z,20.40
2022-10-08T16:19:28.266Z,20.20
2022-10-08T16:21:56.502Z,20.10
2022-10-08T16:24:23.494Z,19.90
2022-10-08T16:26:50.663Z,19.70
2022-10-08T16:29:17.929Z,19.50
2022-10-08T16:31:45.252Z,19.40
2022-10-08T16:34:19.350Z,19.20
2022-10-08T16:36:48.096Z,19.00
2022-10-08T16:39:17.874Z,18.90
2022-10-08T16:41:45.195Z,18.80
2022-10-08T16:44:13.391Z,18.70
2022-10-08T16:46:41.641Z,18.60
2022-10-08T16:49:13.669Z,18.50
2022-10-08T16:51:40.520Z,18.40
2022-10-08T16:54:08.120Z,18.30
2022-10-08T16:56:35.904Z,18.20
2022-10-08T16:59:05.007Z,18.10
2022-10-08T17:01:31.956Z,18.00
2022-10-08T17:03:58.792Z,17.90
2022-10-08T17:06:26.602Z,17.80
2022-10-08T17:08:54.178Z,17.80
2022-10-08T17:11:21.371Z,17.70
2022-10-08T17:13:49.944Z,17.60
2022-10-08T17:16:18.286Z,17.60
2022-10-08T17:18:45.134Z,17.50
2022-10-08T17:21:12.562Z,17.40
2022-10-08T17:23:39.412Z,17.30
2022-10-08T17:26:08.092Z,17.30
2022-10-08T17:28:36.527Z,17.20
2022-10-08T17:31:04.309Z,17.20
2022-10-08T17:33:35.459Z,17.10
2022-10-08T17:36:07.750Z,17.00
2022-10-08T17:38:35.232Z,16.90
2022-10-08T17:41:09.435Z,16.90
2022-10-08T17:43:36.282Z,16.80
2022-10-08T17:46:07.231Z,16.70
2022-10-08T17:48:34.231Z,16.70
2022-10-08T17:51:02.782Z,16.60
2022-10-08T17:53:29.831Z,16.60
2022-10-08T17:55:57.605Z,16.50
2022-10-08T17:58:24.520Z,16.40
2022-10-08T18:00:51.351Z,16.40
2022-10-08T18:03:18.193Z,16.30
2022-10-08T18:05:55.175Z,16.20
2022-10-08T18:08:22.007Z,16.20
2022-10-08T18:10:48.857Z,16.20
2022-10-08T18:13:15.815Z,16.10
2022-10-08T18:15:42.854Z,16.00
2022-10-08T18:18:09.762Z,15.90
2022-10-08T18:20:36.594Z,15.90
2022-10-08T18:23:03.792Z,15.90
2022-10-08T18:25:30.591Z,15.80
2022-10-08T18:27:57.431Z,15.70
2022-10-08T18:30:24.244Z,15.70
2022-10-08T18:32:51.187Z,15.60
2022-10-08T18:35:18.051Z,15.60
2022-10-08T18:37:46.820Z,15.50
2022-10-08T18:40:13.649Z,15.50
2022-10-08T18:42:40.501Z,15.50
2022-10-08T18:45:07.623Z,15.40
2022-10-08T18:47:34.574Z,15.30
2022-10-08T18:50:20.787Z,15.30
2022-10-08T18:52:52.019Z,15.20
2022-10-08T18:55:35.568Z,15.20
2022-10-08T18:58:27.518Z,15.10
2022-10-08T19:04:18.641Z,15.00
2022-10-08T19:07:00.614Z,15.00
2022-10-08T19:09:43.239Z,15.00
2022-10-08T19:14:58.911Z,14.90
2022-10-08T19:17:25.840Z,14.80
2022-10-08T19:19:52.853Z,14.80
2022-10-08T19:22:19.835Z,14.80
2022-10-08T19:24:46.685Z,14.70
2022-10-08T19:27:13.612Z,14.70
2022-10-08T19:29:40.604Z,14.70
2022-10-08T19:32:07.526Z,14.60
2022-10-08T19:34:34.414Z,14.60
2022-10-08T19:37:01.311Z,14.60
2022-10-08T19:39:30.313Z,14.50
2022-10-08T19:41:57.431Z,14.50
2022-10-08T19:44:24.550Z,14.50
2022-10-08T19:46:51.527Z,14.40
2022-10-08T19:49:18.680Z,14.40
2022-10-08T19:51:45.739Z,14.40
2022-10-08T19:54:13.086Z,14.40
2022-10-08T19:56:40.058Z,14.30
2022-10-08T19:59:06.947Z,14.40
2022-10-08T20:01:35.195Z,14.30
2022-10-08T20:04:03.195Z,14.30
2022-10-08T20:06:34.272Z,14.30
2022-10-08T20:09:02.104Z,14.20
2022-10-08T20:11:29.839Z,14.30
2022-10-08T20:13:57.102Z,14.20
2022-10-08T20:16:26.325Z,14.20
2022-10-08T20:18:55.276Z,14.10
2022-10-08T20:21:22.501Z,14.10
2022-10-08T20:23:50.279Z,14.10
2022-10-08T20:26:21.016Z,14.00
2022-10-08T20:28:49.533Z,14.00
2022-10-08T20:31:19.445Z,14.00
2022-10-08T20:33:46.689Z,13.90
2022-10-08T20:36:15.072Z,13.90
2022-10-08T20:38:42.175Z,13.90
2022-10-08T20:41:09.856Z,13.80
2022-10-08T20:43:37.590Z,13.80
2022-10-08T20:46:05.921Z,13.70
2022-10-08T20:48:37.675Z,13.70
2022-10-08T20:51:11.546Z,13.70
2022-10-08T20:53:42.341Z,13.60
2022-10-08T20:56:14.593Z,13.60
2022-10-08T20:58:46.017Z,13.60
2022-10-08T21:01:28.170Z,13.60
2022-10-08T21:03:59.432Z,13.60
2022-10-08T21:06:32.238Z,13.60
2022-10-08T21:09:03.775Z,13.60
2022-10-08T21:11:39.232Z,13.60
2022-10-08T21:14:15.239Z,13.60
2022-10-08T21:16:56.531Z,13.60
2022-10-08T21:19:45.852Z,13.60
2022-10-08T21:22:16.275Z,13.60
2022-10-08T21:24:47.115Z,13.60
2022-10-08T21:27:27.887Z,13.60
2022-10-08T21:30:02.861Z,13.60
2022-10-08T21:32:30.682Z,13.60
2022-10-08T21:35:01.979Z,13.50
2022-10-08T21:40:20.191Z,13.50
2022-10-08T21:42:50.911Z,13.50
2022-10-08T21:45:21.118Z,13.50
2022-10-08T21:47:47.905Z,13.50
2022-10-08T21:50:15.454Z,13.40
2022-10-08T21:52:42.399Z,13.40
2022-10-08T21:55:09.207Z,13.40
2022-10-08T21:57:36.026Z,13.40
2022-10-08T22:00:04.176Z,13.40
2022-10-08T22:02:39.832Z,13.30
2022-10-08T22:05:06.753Z,13.30
2022-10-08T22:07:33.630Z,13.40
2022-10-08T22:10:00.464Z,13.30
2022-10-08T22:12:27.446Z,13.30
2022-10-08T22:14:57.060Z,13.40
2022-10-08T22:17:23.951Z,13.40
2022-10-08T22:19:50.785Z,13.40
2022-10-08T22:22:17.690Z,13.40
2022-10-08T22:24:44.538Z,13.40
2022-10-08T22:27:11.364Z,13.40
2022-10-08T22:29:38.737Z,13.40
2022-10-08T22:32:06.512Z,13.40
2022-10-08T22:34:34.362Z,13.40
2022-10-08T22:37:01.204Z,13.40
2022-10-08T22:39:28.092Z,13.40
2022-10-08T22:41:54.993Z,13.40
2022-10-08T22:44:22.099Z,13.40
2022-10-08T22:46:48.911Z,13.40
2022-10-08T22:49:15.789Z,13.40
2022-10-08T22:51:43.900Z,13.30
2022-10-08T22:54:10.732Z,13.30
2022-10-08T22:56:37.847Z,13.30
2022-10-08T22:59:04.707Z,13.30
2022-10-08T23:01:31.612Z,13.30
2022-10-08T23:03:58.783Z,13.20
2022-10-08T23:06:27.450Z,13.20
2022-10-08T23:08:59.013Z,13.10
2022-10-08T23:11:26.136Z,13.10
2022-10-08T23:13:54.013Z,13.00
2022-10-08T23:16:21.398Z,12.90
2022-10-08T23:18:52.706Z,12.90
2022-10-08T23:21:19.682Z,12.90
2022-10-08T23:23:47.178Z,12.80
2022-10-08T23:26:14.576Z,12.80
2022-10-08T23:28:42.123Z,12.70
2022-10-08T23:31:14.122Z,12.70
2022-10-08T23:33:42.622Z,12.60
2022-10-08T23:36:11.012Z,12.60
2022-10-08T23:38:37.887Z,12.60
2022-10-08T23:41:05.807Z,12.50
2022-10-08T23:43:36.854Z,12.50
2022-10-08T23:46:04.110Z,12.50
2022-10-08T23:48:31.232Z,12.40
2022-10-08T23:50:58.334Z,12.40
2022-10-08T23:53:25.244Z,12.30
2022-10-08T23:55:52.068Z,12.30
2022-10-08T23:58:19.104Z,12.30
